sensor_id;sensor_type;location;lat;lon;timestamp;P1;durP1;ratioP1;P2;durP2;ratioP2
21611;SDS011;47005;52.292;13.452;2023-06-04T00:00:37;9.03;;;4.53;;
21611;SDS011;47005;52.292;13.452;2023-06-04T00:03:03;18.40;;;9.50;;
21611;SDS011;47005;52.292;13.452;2023-06-04T00:05:28;25.33;;;12.60;;
21611;SDS011;47005;52.292;13.452;2023-06-04T00:07:54;27.20;;;12.13;;
21611;SDS011;47005;52.292;13.452;2023-06-04T00:10:20;23.23;;;11.20;;
21611;SDS011;47005;52.292;13.452;2023-06-04T00:12:46;18.53;;;9.33;;
21611;SDS011;47005;52.292;13.452;2023-06-04T00:15:12;11.03;;;5.50;;
21611;SDS011;47005;52.292;13.452;2023-06-04T00:17:40;8.83;;;4.37;;
21611;SDS011;47005;52.292;13.452;2023-06-04T00:20:06;9.50;;;3.83;;
21611;SDS011;47005;52.292;13.452;2023-06-04T00:22:32;16.20;;;7.10;;
21611;SDS011;47005;52.292;13.452;2023-06-04T00:24:57;11.67;;;7.37;;
21611;SDS011;47005;52.292;13.452;2023-06-04T00:27:23;16.00;;;8.43;;
21611;SDS011;47005;52.292;13.452;2023-06-04T00:29:49;18.37;;;10.07;;
21611;SDS011;47005;52.292;13.452;2023-06-04T00:32:14;21.37;;;8.73;;
21611;SDS011;47005;52.292;13.452;2023-06-04T00:34:40;20.67;;;11.40;;
21611;SDS011;47005;52.292;13.452;2023-06-04T00:37:06;33.53;;;16.73;;
21611;SDS011;47005;52.292;13.452;2023-06-04T00:39:31;21.60;;;9.93;;
21611;SDS011;47005;52.292;13.452;2023-06-04T00:41:57;14.13;;;7.30;;
21611;SDS011;47005;52.292;13.452;2023-06-04T00:44:23;15.53;;;7.50;;
21611;SDS011;47005;52.292;13.452;2023-06-04T00:46:50;7.37;;;4.93;;
21611;SDS011;47005;52.292;13.452;2023-06-04T00:49:16;10.57;;;5.00;;
21611;SDS011;47005;52.292;13.452;2023-06-04T00:51:41;9.40;;;3.67;;
21611;SDS011;47005;52.292;13.452;2023-06-04T00:54:07;6.53;;;3.77;;
21611;SDS011;47005;52.292;13.452;2023-06-04T00:56:37;7.37;;;2.77;;
21611;SDS011;47005;52.292;13.452;2023-06-04T00:59:06;4.03;;;2.67;;
21611;SDS011;47005;52.292;13.452;2023-06-04T01:04:34;5.13;;;2.67;;
21611;SDS011;47005;52.292;13.452;2023-06-04T01:07:05;4.77;;;2.63;;
21611;SDS011;47005;52.292;13.452;2023-06-04T01:09:33;3.87;;;2.57;;
21611;SDS011;47005;52.292;13.452;2023-06-04T01:12:03;5.10;;;2.93;;
21611;SDS011;47005;52.292;13.452;2023-06-04T01:14:30;4.50;;;2.30;;
21611;SDS011;47005;52.292;13.452;2023-06-04T01:17:02;4.83;;;1.93;;
21611;SDS011;47005;52.292;13.452;2023-06-04T01:22:43;5.87;;;2.13;;
21611;SDS011;47005;52.292;13.452;2023-06-04T01:27:57;8.47;;;2.77;;
21611;SDS011;47005;52.292;13.452;2023-06-04T01:30:42;4.13;;;2.27;;
21611;SDS011;47005;52.292;13.452;2023-06-04T01:33:12;9.53;;;2.30;;
21611;SDS011;47005;52.292;13.452;2023-06-04T01:35:39;4.47;;;2.27;;
21611;SDS011;47005;52.292;13.452;2023-06-04T01:38:05;6.00;;;2.23;;
21611;SDS011;47005;52.292;13.452;2023-06-04T01:40:31;4.27;;;2.30;;
21611;SDS011;47005;52.292;13.452;2023-06-04T01:42:58;5.63;;;2.57;;
21611;SDS011;47005;52.292;13.452;2023-06-04T01:45:25;5.07;;;2.57;;
21611;SDS011;47005;52.292;13.452;2023-06-04T01:47:52;6.00;;;3.30;;
21611;SDS011;47005;52.292;13.452;2023-06-04T01:50:18;10.77;;;4.23;;
21611;SDS011;47005;52.292;13.452;2023-06-04T01:52:44;17.80;;;7.73;;
21611;SDS011;47005;52.292;13.452;2023-06-04T01:55:10;14.60;;;8.13;;
21611;SDS011;47005;52.292;13.452;2023-06-04T01:57:38;16.97;;;9.10;;
21611;SDS011;47005;52.292;13.452;2023-06-04T02:00:07;15.83;;;7.63;;
21611;SDS011;47005;52.292;13.452;2023-06-04T02:02:35;11.63;;;5.20;;
21611;SDS011;47005;52.292;13.452;2023-06-04T02:05:03;13.83;;;6.80;;
21611;SDS011;47005;52.292;13.452;2023-06-04T02:07:32;9.03;;;5.13;;
21611;SDS011;47005;52.292;13.452;2023-06-04T02:09:59;6.87;;;3.67;;
21611;SDS011;47005;52.292;13.452;2023-06-04T02:12:25;4.97;;;2.80;;
21611;SDS011;47005;52.292;13.452;2023-06-04T02:14:50;4.37;;;2.63;;
21611;SDS011;47005;52.292;13.452;2023-06-04T02:17:16;5.27;;;2.97;;
21611;SDS011;47005;52.292;13.452;2023-06-04T02:19:42;6.20;;;3.20;;
21611;SDS011;47005;52.292;13.452;2023-06-04T02:22:18;5.60;;;3.00;;
21611;SDS011;47005;52.292;13.452;2023-06-04T02:24:45;5.67;;;2.93;;
21611;SDS011;47005;52.292;13.452;2023-06-04T02:27:13;7.30;;;3.43;;
21611;SDS011;47005;52.292;13.452;2023-06-04T02:29:39;7.07;;;3.23;;
21611;SDS011;47005;52.292;13.452;2023-06-04T02:32:06;4.77;;;2.57;;
21611;SDS011;47005;52.292;13.452;2023-06-04T02:34:32;6.77;;;2.63;;
21611;SDS011;47005;52.292;13.452;2023-06-04T02:37:02;4.80;;;2.30;;
21611;SDS011;47005;52.292;13.452;2023-06-04T02:39:28;4.07;;;1.73;;
21611;SDS011;47005;52.292;13.452;2023-06-04T02:41:54;3.53;;;2.10;;
21611;SDS011;47005;52.292;13.452;2023-06-04T02:44:20;3.77;;;2.10;;
21611;SDS011;47005;52.292;13.452;2023-06-04T02:46:46;3.50;;;2.13;;
21611;SDS011;47005;52.292;13.452;2023-06-04T02:49:11;5.10;;;1.93;;
21611;SDS011;47005;52.292;13.452;2023-06-04T02:51:41;5.27;;;2.00;;
21611;SDS011;47005;52.292;13.452;2023-06-04T02:54:10;3.93;;;2.50;;
21611;SDS011;47005;52.292;13.452;2023-06-04T02:56:36;3.13;;;1.87;;
21611;SDS011;47005;52.292;13.452;2023-06-04T02:59:02;4.77;;;2.57;;
21611;SDS011;47005;52.292;13.452;2023-06-04T03:01:28;3.00;;;2.03;;
21611;SDS011;47005;52.292;13.452;2023-06-04T03:03:55;4.13;;;2.30;;
21611;SDS011;47005;52.292;13.452;2023-06-04T03:06:22;5.90;;;1.80;;
21611;SDS011;47005;52.292;13.452;2023-06-04T03:08:49;3.27;;;1.80;;
21611;SDS011;47005;52.292;13.452;2023-06-04T03:11:15;3.93;;;2.20;;
21611;SDS011;47005;52.292;13.452;2023-06-04T03:13:41;3.33;;;2.13;;
21611;SDS011;47005;52.292;13.452;2023-06-04T03:16:07;3.47;;;2.07;;
21611;SDS011;47005;52.292;13.452;2023-06-04T03:18:38;6.67;;;2.23;;
21611;SDS011;47005;52.292;13.452;2023-06-04T03:21:07;7.57;;;2.40;;
21611;SDS011;47005;52.292;13.452;2023-06-04T03:23:34;3.13;;;1.80;;
21611;SDS011;47005;52.292;13.452;2023-06-04T03:26:01;7.50;;;2.27;;
21611;SDS011;47005;52.292;13.452;2023-06-04T03:28:27;4.27;;;2.60;;
21611;SDS011;47005;52.292;13.452;2023-06-04T03:30:53;5.27;;;2.27;;
21611;SDS011;47005;52.292;13.452;2023-06-04T03:33:19;3.97;;;2.30;;
21611;SDS011;47005;52.292;13.452;2023-06-04T03:35:44;5.33;;;1.90;;
21611;SDS011;47005;52.292;13.452;2023-06-04T03:38:10;5.53;;;2.73;;
21611;SDS011;47005;52.292;13.452;2023-06-04T03:40:36;3.57;;;1.83;;
21611;SDS011;47005;52.292;13.452;2023-06-04T03:43:02;4.20;;;2.13;;
21611;SDS011;47005;52.292;13.452;2023-06-04T03:45:29;4.37;;;2.30;;
21611;SDS011;47005;52.292;13.452;2023-06-04T03:47:55;3.53;;;2.30;;
21611;SDS011;47005;52.292;13.452;2023-06-04T03:50:21;3.00;;;2.03;;
21611;SDS011;47005;52.292;13.452;2023-06-04T03:52:49;4.30;;;2.23;;
21611;SDS011;47005;52.292;13.452;2023-06-04T03:55:15;6.53;;;2.83;;
21611;SDS011;47005;52.292;13.452;2023-06-04T03:57:41;6.70;;;2.50;;
21611;SDS011;47005;52.292;13.452;2023-06-04T04:00:07;2.50;;;1.90;;
21611;SDS011;47005;52.292;13.452;2023-06-04T04:02:37;3.30;;;2.07;;
21611;SDS011;47005;52.292;13.452;2023-06-04T04:05:03;3.97;;;2.23;;
21611;SDS011;47005;52.292;13.452;2023-06-04T04:07:29;3.33;;;2.20;;
21611;SDS011;47005;52.292;13.452;2023-06-04T04:09:55;5.43;;;2.77;;
21611;SDS011;47005;52.292;13.452;2023-06-04T04:12:20;4.43;;;2.30;;
21611;SDS011;47005;52.292;13.452;2023-06-04T04:14:46;3.13;;;2.10;;
21611;SDS011;47005;52.292;13.452;2023-06-04T04:17:12;4.90;;;2.37;;
21611;SDS011;47005;52.292;13.452;2023-06-04T04:19:38;3.37;;;2.13;;
21611;SDS011;47005;52.292;13.452;2023-06-04T04:22:04;3.23;;;2.23;;
21611;SDS011;47005;52.292;13.452;2023-06-04T04:24:31;3.67;;;2.10;;
21611;SDS011;47005;52.292;13.452;2023-06-04T04:26:59;6.53;;;2.07;;
21611;SDS011;47005;52.292;13.452;2023-06-04T04:29:25;4.07;;;2.00;;
21611;SDS011;47005;52.292;13.452;2023-06-04T04:31:52;3.27;;;2.30;;
21611;SDS011;47005;52.292;13.452;2023-06-04T04:34:22;4.03;;;2.40;;
21611;SDS011;47005;52.292;13.452;2023-06-04T04:36:50;4.37;;;2.30;;
21611;SDS011;47005;52.292;13.452;2023-06-04T04:39:22;8.27;;;2.13;;
21611;SDS011;47005;52.292;13.452;2023-06-04T04:41:51;3.63;;;2.17;;
21611;SDS011;47005;52.292;13.452;2023-06-04T04:44:19;7.50;;;2.20;;
21611;SDS011;47005;52.292;13.452;2023-06-04T04:46:45;5.23;;;2.70;;
21611;SDS011;47005;52.292;13.452;2023-06-04T04:49:11;4.87;;;2.50;;
21611;SDS011;47005;52.292;13.452;2023-06-04T04:51:36;4.03;;;2.37;;
21611;SDS011;47005;52.292;13.452;2023-06-04T04:54:02;4.37;;;2.50;;
21611;SDS011;47005;52.292;13.452;2023-06-04T04:56:28;5.30;;;2.40;;
21611;SDS011;47005;52.292;13.452;2023-06-04T04:58:54;3.10;;;1.60;;
21611;SDS011;47005;52.292;13.452;2023-06-04T05:01:21;2.77;;;1.57;;
21611;SDS011;47005;52.292;13.452;2023-06-04T05:03:48;3.40;;;1.80;;
21611;SDS011;47005;52.292;13.452;2023-06-04T05:06:13;4.57;;;2.10;;
21611;SDS011;47005;52.292;13.452;2023-06-04T05:08:39;3.43;;;2.00;;
21611;SDS011;47005;52.292;13.452;2023-06-04T05:11:05;4.73;;;1.97;;
21611;SDS011;47005;52.292;13.452;2023-06-04T05:13:31;3.17;;;2.00;;
21611;SDS011;47005;52.292;13.452;2023-06-04T05:15:56;3.93;;;2.10;;
21611;SDS011;47005;52.292;13.452;2023-06-04T05:18:23;2.73;;;1.40;;
21611;SDS011;47005;52.292;13.452;2023-06-04T05:20:53;7.23;;;2.27;;
21611;SDS011;47005;52.292;13.452;2023-06-04T05:23:20;5.40;;;1.73;;
21611;SDS011;47005;52.292;13.452;2023-06-04T05:25:45;5.27;;;1.40;;
21611;SDS011;47005;52.292;13.452;2023-06-04T05:28:14;3.27;;;1.40;;
21611;SDS011;47005;52.292;13.452;2023-06-04T05:30:40;3.77;;;1.80;;
21611;SDS011;47005;52.292;13.452;2023-06-04T05:33:06;3.63;;;1.50;;
21611;SDS011;47005;52.292;13.452;2023-06-04T05:35:36;3.17;;;1.53;;
21611;SDS011;47005;52.292;13.452;2023-06-04T05:38:06;2.27;;;1.47;;
21611;SDS011;47005;52.292;13.452;2023-06-04T05:40:31;4.90;;;1.97;;
21611;SDS011;47005;52.292;13.452;2023-06-04T05:42:57;3.03;;;1.70;;
21611;SDS011;47005;52.292;13.452;2023-06-04T05:45:23;8.27;;;1.70;;
21611;SDS011;47005;52.292;13.452;2023-06-04T05:47:48;3.30;;;1.73;;
21611;SDS011;47005;52.292;13.452;2023-06-04T05:50:14;3.90;;;1.87;;
21611;SDS011;47005;52.292;13.452;2023-06-04T05:52:39;3.83;;;1.40;;
21611;SDS011;47005;52.292;13.452;2023-06-04T05:55:05;2.40;;;1.35;;
21611;SDS011;47005;52.292;13.452;2023-06-04T05:57:35;2.65;;;1.50;;
21611;SDS011;47005;52.292;13.452;2023-06-04T06:00:01;2.72;;;1.20;;
21611;SDS011;47005;52.292;13.452;2023-06-04T06:02:27;3.87;;;1.53;;
21611;SDS011;47005;52.292;13.452;2023-06-04T06:04:53;2.80;;;1.40;;
21611;SDS011;47005;52.292;13.452;2023-06-04T06:07:18;3.42;;;1.50;;
21611;SDS011;47005;52.292;13.452;2023-06-04T06:09:44;3.75;;;1.40;;
21611;SDS011;47005;52.292;13.452;2023-06-04T06:12:10;3.40;;;1.40;;
21611;SDS011;47005;52.292;13.452;2023-06-04T06:14:36;2.33;;;1.38;;
21611;SDS011;47005;52.292;13.452;2023-06-04T06:17:02;2.42;;;1.38;;
21611;SDS011;47005;52.292;13.452;2023-06-04T06:19:28;5.55;;;1.85;;
21611;SDS011;47005;52.292;13.452;2023-06-04T06:21:53;5.38;;;1.52;;
21611;SDS011;47005;52.292;13.452;2023-06-04T06:24:19;6.60;;;1.73;;
21611;SDS011;47005;52.292;13.452;2023-06-04T06:26:45;9.05;;;1.48;;
21611;SDS011;47005;52.292;13.452;2023-06-04T06:29:10;2.55;;;1.08;;
21611;SDS011;47005;52.292;13.452;2023-06-04T06:31:36;2.20;;;1.20;;
21611;SDS011;47005;52.292;13.452;2023-06-04T06:34:02;3.30;;;1.60;;
21611;SDS011;47005;52.292;13.452;2023-06-04T06:36:27;2.70;;;1.25;;
21611;SDS011;47005;52.292;13.452;2023-06-04T06:38:53;1.88;;;1.20;;
21611;SDS011;47005;52.292;13.452;2023-06-04T06:41:19;2.17;;;1.33;;
21611;SDS011;47005;52.292;13.452;2023-06-04T06:43:45;2.17;;;1.25;;
21611;SDS011;47005;52.292;13.452;2023-06-04T06:46:12;6.78;;;1.17;;
21611;SDS011;47005;52.292;13.452;2023-06-04T06:48:37;5.72;;;1.67;;
21611;SDS011;47005;52.292;13.452;2023-06-04T06:51:03;2.42;;;1.10;;
21611;SDS011;47005;52.292;13.452;2023-06-04T06:53:29;2.28;;;1.08;;
21611;SDS011;47005;52.292;13.452;2023-06-04T06:55:54;2.42;;;1.42;;
21611;SDS011;47005;52.292;13.452;2023-06-04T06:58:21;2.63;;;1.40;;
21611;SDS011;47005;52.292;13.452;2023-06-04T07:00:48;4.35;;;1.55;;
21611;SDS011;47005;52.292;13.452;2023-06-04T07:03:13;2.95;;;0.95;;
21611;SDS011;47005;52.292;13.452;2023-06-04T07:05:40;3.78;;;1.38;;
21611;SDS011;47005;52.292;13.452;2023-06-04T07:08:06;5.43;;;1.17;;
21611;SDS011;47005;52.292;13.452;2023-06-04T07:10:31;2.10;;;1.08;;
21611;SDS011;47005;52.292;13.452;2023-06-04T07:12:57;4.38;;;1.33;;
21611;SDS011;47005;52.292;13.452;2023-06-04T07:15:23;3.28;;;1.33;;
21611;SDS011;47005;52.292;13.452;2023-06-04T07:17:48;3.10;;;1.10;;
21611;SDS011;47005;52.292;13.452;2023-06-04T07:20:14;2.00;;;1.00;;
21611;SDS011;47005;52.292;13.452;2023-06-04T07:22:40;3.25;;;1.30;;
21611;SDS011;47005;52.292;13.452;2023-06-04T07:25:06;1.65;;;0.90;;
21611;SDS011;47005;52.292;13.452;2023-06-04T07:27:33;2.67;;;1.40;;
21611;SDS011;47005;52.292;13.452;2023-06-04T07:29:59;2.28;;;1.17;;
21611;SDS011;47005;52.292;13.452;2023-06-04T07:32:25;1.67;;;1.02;;
21611;SDS011;47005;52.292;13.452;2023-06-04T07:34:50;3.15;;;0.88;;
21611;SDS011;47005;52.292;13.452;2023-06-04T07:37:16;3.35;;;1.00;;
21611;SDS011;47005;52.292;13.452;2023-06-04T07:39:41;3.22;;;1.13;;
21611;SDS011;47005;52.292;13.452;2023-06-04T07:42:07;1.75;;;0.80;;
21611;SDS011;47005;52.292;13.452;2023-06-04T07:44:33;1.88;;;0.93;;
21611;SDS011;47005;52.292;13.452;2023-06-04T07:47:00;1.77;;;0.75;;
21611;SDS011;47005;52.292;13.452;2023-06-04T07:49:25;2.92;;;1.02;;
21611;SDS011;47005;52.292;13.452;2023-06-04T07:51:51;9.38;;;1.15;;
21611;SDS011;47005;52.292;13.452;2023-06-04T07:54:17;2.00;;;1.10;;
21611;SDS011;47005;52.292;13.452;2023-06-04T07:56:43;2.05;;;0.90;;
21611;SDS011;47005;52.292;13.452;2023-06-04T07:59:09;2.30;;;0.90;;
21611;SDS011;47005;52.292;13.452;2023-06-04T08:01:34;1.70;;;0.70;;
21611;SDS011;47005;52.292;13.452;2023-06-04T08:04:00;3.72;;;1.27;;
21611;SDS011;47005;52.292;13.452;2023-06-04T08:06:26;2.42;;;1.00;;
21611;SDS011;47005;52.292;13.452;2023-06-04T08:08:51;3.60;;;1.38;;
21611;SDS011;47005;52.292;13.452;2023-06-04T08:11:17;4.38;;;0.90;;
21611;SDS011;47005;52.292;13.452;2023-06-04T08:13:43;2.55;;;0.85;;
21611;SDS011;47005;52.292;13.452;2023-06-04T08:16:09;2.53;;;1.17;;
21611;SDS011;47005;52.292;13.452;2023-06-04T08:18:41;0.90;;;0.65;;
21611;SDS011;47005;52.292;13.452;2023-06-04T08:21:10;3.30;;;0.90;;
21611;SDS011;47005;52.292;13.452;2023-06-04T08:23:36;1.85;;;0.90;;
21611;SDS011;47005;52.292;13.452;2023-06-04T08:26:02;1.38;;;0.80;;
21611;SDS011;47005;52.292;13.452;2023-06-04T08:28:27;1.50;;;0.80;;
21611;SDS011;47005;52.292;13.452;2023-06-04T08:30:53;6.05;;;1.13;;
21611;SDS011;47005;52.292;13.452;2023-06-04T08:33:18;1.48;;;0.75;;
21611;SDS011;47005;52.292;13.452;2023-06-04T08:35:44;1.88;;;0.85;;
21611;SDS011;47005;52.292;13.452;2023-06-04T08:38:10;3.85;;;0.85;;
21611;SDS011;47005;52.292;13.452;2023-06-04T08:40:35;2.03;;;0.90;;
21611;SDS011;47005;52.292;13.452;2023-06-04T08:43:01;2.25;;;0.98;;
21611;SDS011;47005;52.292;13.452;2023-06-04T08:45:27;2.38;;;0.98;;
21611;SDS011;47005;52.292;13.452;2023-06-04T08:47:53;3.17;;;0.80;;
21611;SDS011;47005;52.292;13.452;2023-06-04T08:50:20;1.77;;;0.70;;
21611;SDS011;47005;52.292;13.452;2023-06-04T08:52:47;1.42;;;0.77;;
21611;SDS011;47005;52.292;13.452;2023-06-04T08:55:17;1.80;;;0.77;;
21611;SDS011;47005;52.292;13.452;2023-06-04T08:57:43;2.15;;;0.75;;
21611;SDS011;47005;52.292;13.452;2023-06-04T09:00:10;1.65;;;0.88;;
21611;SDS011;47005;52.292;13.452;2023-06-04T09:02:37;2.35;;;0.80;;
21611;SDS011;47005;52.292;13.452;2023-06-04T09:05:03;2.45;;;0.77;;
21611;SDS011;47005;52.292;13.452;2023-06-04T09:07:33;4.78;;;0.77;;
21611;SDS011;47005;52.292;13.452;2023-06-04T09:10:02;2.22;;;0.90;;
21611;SDS011;47005;52.292;13.452;2023-06-04T09:12:30;1.45;;;0.82;;
21611;SDS011;47005;52.292;13.452;2023-06-04T09:14:58;1.20;;;0.80;;
21611;SDS011;47005;52.292;13.452;2023-06-04T09:17:24;1.27;;;0.75;;
21611;SDS011;47005;52.292;13.452;2023-06-04T09:19:50;1.33;;;0.68;;
21611;SDS011;47005;52.292;13.452;2023-06-04T09:22:16;1.73;;;0.70;;
21611;SDS011;47005;52.292;13.452;2023-06-04T09:24:43;3.63;;;0.85;;
21611;SDS011;47005;52.292;13.452;2023-06-04T09:29:38;1.60;;;0.80;;
21611;SDS011;47005;52.292;13.452;2023-06-04T09:32:05;2.97;;;0.77;;
21611;SDS011;47005;52.292;13.452;2023-06-04T09:34:30;2.88;;;0.70;;
21611;SDS011;47005;52.292;13.452;2023-06-04T09:36:58;1.40;;;0.80;;
21611;SDS011;47005;52.292;13.452;2023-06-04T09:39:24;1.23;;;0.50;;
21611;SDS011;47005;52.292;13.452;2023-06-04T09:41:59;1.75;;;0.80;;
21611;SDS011;47005;52.292;13.452;2023-06-04T09:44:25;3.50;;;0.68;;
21611;SDS011;47005;52.292;13.452;2023-06-04T09:46:57;3.28;;;0.80;;
21611;SDS011;47005;52.292;13.452;2023-06-04T09:49:23;2.33;;;1.08;;
21611;SDS011;47005;52.292;13.452;2023-06-04T09:51:49;0.90;;;0.60;;
21611;SDS011;47005;52.292;13.452;2023-06-04T09:54:15;1.83;;;0.90;;
21611;SDS011;47005;52.292;13.452;2023-06-04T09:56:41;0.95;;;0.75;;
21611;SDS011;47005;52.292;13.452;2023-06-04T09:59:10;3.13;;;1.15;;
21611;SDS011;47005;52.292;13.452;2023-06-04T10:01:39;5.68;;;1.00;;
21611;SDS011;47005;52.292;13.452;2023-06-04T10:04:07;1.92;;;1.00;;
21611;SDS011;47005;52.292;13.452;2023-06-04T10:06:34;2.20;;;0.88;;
21611;SDS011;47005;52.292;13.452;2023-06-04T10:09:07;0.85;;;0.70;;
21611;SDS011;47005;52.292;13.452;2023-06-04T10:11:34;6.93;;;1.10;;
21611;SDS011;47005;52.292;13.452;2023-06-04T10:14:27;2.95;;;0.90;;
21611;SDS011;47005;52.292;13.452;2023-06-04T10:17:04;4.05;;;0.95;;
21611;SDS011;47005;52.292;13.452;2023-06-04T10:19:33;1.25;;;0.77;;
21611;SDS011;47005;52.292;13.452;2023-06-04T10:22:03;1.92;;;1.00;;
21611;SDS011;47005;52.292;13.452;2023-06-04T10:24:30;2.03;;;0.80;;
21611;SDS011;47005;52.292;13.452;2023-06-04T10:26:57;2.20;;;1.00;;
21611;SDS011;47005;52.292;13.452;2023-06-04T10:29:23;3.70;;;1.45;;
21611;SDS011;47005;52.292;13.452;2023-06-04T10:31:54;2.30;;;1.15;;
21611;SDS011;47005;52.292;13.452;2023-06-04T10:34:20;1.77;;;0.98;;
21611;SDS011;47005;52.292;13.452;2023-06-04T10:36:46;2.97;;;0.93;;
21611;SDS011;47005;52.292;13.452;2023-06-04T10:39:39;1.98;;;0.75;;
21611;SDS011;47005;52.292;13.452;2023-06-04T10:42:15;2.15;;;0.88;;
21611;SDS011;47005;52.292;13.452;2023-06-04T10:44:44;2.33;;;1.02;;
21611;SDS011;47005;52.292;13.452;2023-06-04T10:47:18;1.13;;;0.80;;
21611;SDS011;47005;52.292;13.452;2023-06-04T10:49:45;3.33;;;1.05;;
21611;SDS011;47005;52.292;13.452;2023-06-04T10:52:11;2.05;;;0.80;;
21611;SDS011;47005;52.292;13.452;2023-06-04T10:54:36;1.00;;;0.90;;
21611;SDS011;47005;52.292;13.452;2023-06-04T10:57:12;2.63;;;0.88;;
21611;SDS011;47005;52.292;13.452;2023-06-04T10:59:38;2.08;;;1.00;;
21611;SDS011;47005;52.292;13.452;2023-06-04T11:02:05;3.60;;;1.13;;
21611;SDS011;47005;52.292;13.452;2023-06-04T11:04:35;3.25;;;0.93;;
21611;SDS011;47005;52.292;13.452;2023-06-04T11:07:04;2.28;;;1.23;;
21611;SDS011;47005;52.292;13.452;2023-06-04T11:09:34;1.30;;;0.85;;
21611;SDS011;47005;52.292;13.452;2023-06-04T11:12:01;1.10;;;0.80;;
21611;SDS011;47005;52.292;13.452;2023-06-04T11:14:29;5.32;;;1.05;;
21611;SDS011;47005;52.292;13.452;2023-06-04T11:16:54;1.98;;;0.90;;
21611;SDS011;47005;52.292;13.452;2023-06-04T11:19:20;1.85;;;0.77;;
21611;SDS011;47005;52.292;13.452;2023-06-04T11:21:46;1.35;;;0.80;;
21611;SDS011;47005;52.292;13.452;2023-06-04T11:24:13;1.48;;;0.80;;
21611;SDS011;47005;52.292;13.452;2023-06-04T11:26:38;1.15;;;0.75;;
21611;SDS011;47005;52.292;13.452;2023-06-04T11:29:08;2.00;;;1.00;;
21611;SDS011;47005;52.292;13.452;2023-06-04T11:34:09;1.10;;;0.70;;
21611;SDS011;47005;52.292;13.452;2023-06-04T11:36:37;1.50;;;0.90;;
21611;SDS011;47005;52.292;13.452;2023-06-04T11:39:03;2.35;;;1.00;;
21611;SDS011;47005;52.292;13.452;2023-06-04T11:41:33;1.67;;;0.93;;
21611;SDS011;47005;52.292;13.452;2023-06-04T11:44:04;2.17;;;1.35;;
21611;SDS011;47005;52.292;13.452;2023-06-04T11:46:41;1.42;;;0.80;;
21611;SDS011;47005;52.292;13.452;2023-06-04T11:49:16;2.38;;;1.05;;
21611;SDS011;47005;52.292;13.452;2023-06-04T11:51:46;1.60;;;0.95;;
21611;SDS011;47005;52.292;13.452;2023-06-04T11:54:16;2.17;;;0.90;;
21611;SDS011;47005;52.292;13.452;2023-06-04T11:56:44;2.55;;;1.10;;
21611;SDS011;47005;52.292;13.452;2023-06-04T11:59:15;1.48;;;0.90;;
21611;SDS011;47005;52.292;13.452;2023-06-04T12:01:42;2.28;;;0.90;;
21611;SDS011;47005;52.292;13.452;2023-06-04T12:04:13;1.50;;;0.77;;
21611;SDS011;47005;52.292;13.452;2023-06-04T12:09:23;3.08;;;0.70;;
21611;SDS011;47005;52.292;13.452;2023-06-04T12:11:57;1.08;;;0.60;;
21611;SDS011;47005;52.292;13.452;2023-06-04T12:14:24;2.15;;;0.93;;
21611;SDS011;47005;52.292;13.452;2023-06-04T12:17:00;1.02;;;0.73;;
21611;SDS011;47005;52.292;13.452;2023-06-04T12:19:33;2.00;;;1.13;;
21611;SDS011;47005;52.292;13.452;2023-06-04T12:22:09;1.98;;;0.95;;
21611;SDS011;47005;52.292;13.452;2023-06-04T12:24:46;1.95;;;1.10;;
21611;SDS011;47005;52.292;13.452;2023-06-04T12:27:18;1.30;;;0.80;;
21611;SDS011;47005;52.292;13.452;2023-06-04T12:30:07;2.47;;;0.80;;
21611;SDS011;47005;52.292;13.452;2023-06-04T12:32:35;1.98;;;1.23;;
21611;SDS011;47005;52.292;13.452;2023-06-04T12:35:01;1.42;;;0.95;;
21611;SDS011;47005;52.292;13.452;2023-06-04T12:37:27;3.88;;;1.10;;
21611;SDS011;47005;52.292;13.452;2023-06-04T12:39:53;1.50;;;0.88;;
21611;SDS011;47005;52.292;13.452;2023-06-04T12:42:20;1.83;;;1.10;;
21611;SDS011;47005;52.292;13.452;2023-06-04T12:44:45;2.80;;;0.85;;
21611;SDS011;47005;52.292;13.452;2023-06-04T12:47:11;1.80;;;1.00;;
21611;SDS011;47005;52.292;13.452;2023-06-04T12:49:37;1.88;;;0.80;;
21611;SDS011;47005;52.292;13.452;2023-06-04T12:52:03;1.70;;;0.90;;
21611;SDS011;47005;52.292;13.452;2023-06-04T12:54:29;1.63;;;0.90;;
21611;SDS011;47005;52.292;13.452;2023-06-04T12:56:56;1.45;;;0.90;;
21611;SDS011;47005;52.292;13.452;2023-06-04T12:59:32;1.90;;;0.90;;
21611;SDS011;47005;52.292;13.452;2023-06-04T13:01:58;1.58;;;1.15;;
21611;SDS011;47005;52.292;13.452;2023-06-04T13:04:23;0.80;;;0.57;;
21611;SDS011;47005;52.292;13.452;2023-06-04T13:06:49;1.40;;;0.80;;
21611;SDS011;47005;52.292;13.452;2023-06-04T13:09:18;2.30;;;0.90;;
21611;SDS011;47005;52.292;13.452;2023-06-04T13:11:45;1.63;;;0.98;;
21611;SDS011;47005;52.292;13.452;2023-06-04T13:14:11;1.77;;;1.00;;
21611;SDS011;47005;52.292;13.452;2023-06-04T13:16:40;3.47;;;1.10;;
21611;SDS011;47005;52.292;13.452;2023-06-04T13:19:06;1.92;;;0.80;;
21611;SDS011;47005;52.292;13.452;2023-06-04T13:21:32;1.08;;;0.77;;
21611;SDS011;47005;52.292;13.452;2023-06-04T13:23:58;4.10;;;1.10;;
21611;SDS011;47005;52.292;13.452;2023-06-04T13:26:24;2.40;;;1.02;;
21611;SDS011;47005;52.292;13.452;2023-06-04T13:28:50;2.03;;;1.10;;
21611;SDS011;47005;52.292;13.452;2023-06-04T13:31:16;2.67;;;1.05;;
21611;SDS011;47005;52.292;13.452;2023-06-04T13:33:42;4.47;;;1.20;;
21611;SDS011;47005;52.292;13.452;2023-06-04T13:36:08;3.75;;;1.13;;
21611;SDS011;47005;52.292;13.452;2023-06-04T13:38:34;2.00;;;1.10;;
21611;SDS011;47005;52.292;13.452;2023-06-04T13:41:00;2.22;;;1.25;;
21611;SDS011;47005;52.292;13.452;2023-06-04T13:43:25;2.00;;;0.98;;
21611;SDS011;47005;52.292;13.452;2023-06-04T13:45:51;1.73;;;0.88;;
21611;SDS011;47005;52.292;13.452;2023-06-04T13:48:17;3.92;;;1.55;;
21611;SDS011;47005;52.292;13.452;2023-06-04T13:50:43;2.05;;;0.90;;
21611;SDS011;47005;52.292;13.452;2023-06-04T13:53:09;2.65;;;1.23;;
21611;SDS011;47005;52.292;13.452;2023-06-04T13:55:35;2.25;;;0.90;;
21611;SDS011;47005;52.292;13.452;2023-06-04T13:58:01;1.88;;;1.00;;
21611;SDS011;47005;52.292;13.452;2023-06-04T14:00:27;2.35;;;1.15;;
21611;SDS011;47005;52.292;13.452;2023-06-04T14:02:55;2.38;;;0.93;;
21611;SDS011;47005;52.292;13.452;2023-06-04T14:05:21;1.58;;;0.73;;
21611;SDS011;47005;52.292;13.452;2023-06-04T14:07:48;1.75;;;1.23;;
21611;SDS011;47005;52.292;13.452;2023-06-04T14:10:14;3.28;;;1.23;;
21611;SDS011;47005;52.292;13.452;2023-06-04T14:12:40;3.97;;;1.20;;
21611;SDS011;47005;52.292;13.452;2023-06-04T14:15:06;1.90;;;1.15;;
21611;SDS011;47005;52.292;13.452;2023-06-04T14:17:33;2.25;;;1.15;;
21611;SDS011;47005;52.292;13.452;2023-06-04T14:19:59;3.53;;;1.20;;
21611;SDS011;47005;52.292;13.452;2023-06-04T14:22:41;6.45;;;1.35;;
21611;SDS011;47005;52.292;13.452;2023-06-04T14:25:07;2.03;;;1.15;;
21611;SDS011;47005;52.292;13.452;2023-06-04T14:27:34;1.90;;;1.15;;
21611;SDS011;47005;52.292;13.452;2023-06-04T14:30:00;1.88;;;1.30;;
21611;SDS011;47005;52.292;13.452;2023-06-04T14:32:27;1.55;;;0.90;;
21611;SDS011;47005;52.292;13.452;2023-06-04T14:34:53;0.93;;;0.70;;
21611;SDS011;47005;52.292;13.452;2023-06-04T14:37:18;1.50;;;0.77;;
21611;SDS011;47005;52.292;13.452;2023-06-04T14:39:45;1.67;;;0.80;;
21611;SDS011;47005;52.292;13.452;2023-06-04T14:42:12;2.47;;;1.13;;
21611;SDS011;47005;52.292;13.452;2023-06-04T14:44:38;2.45;;;1.25;;
21611;SDS011;47005;52.292;13.452;2023-06-04T14:47:04;1.27;;;0.93;;
21611;SDS011;47005;52.292;13.452;2023-06-04T14:49:30;1.95;;;0.80;;